Time;durP1;ratioP1;P1;durP2;ratioP2;P2;SDS_P1;SDS_P2;PMS_P1;PMS_P2;Temp;Humidity;BMP_temperature;BMP_pressure;BME280_temperature;BME280_humidity;BME280_pressure;Samples;Min_cycle;Max_cycle;Signal;HPM_P1;HPM_P2
2022/09/27 00:00:41;;;;;;;3.20;1.90;;;11.20;99.90;;;;;;5111072;28;20541;-55
2022/09/27 00:03:09;;;;;;;2.00;1.73;;;11.10;99.90;;;;;;5112432;28;20486;-55
2022/09/27 00:05:36;;;;;;;2.47;2.27;;;11.00;99.90;;;;;;5116761;28;20446;-56
2022/09/27 00:08:04;;;;;;;1.70;1.60;;;11.10;99.90;;;;;;5114818;28;20541;-56
2022/09/27 00:10:31;;;;;;;1.70;1.60;;;11.10;99.90;;;;;;5116944;28;20446;-56
2022/09/27 00:12:59;;;;;;;1.77;1.67;;;11.10;99.90;;;;;;5117179;28;20545;-56
2022/09/27 00:15:26;;;;;;;2.40;1.83;;;11.10;99.90;;;;;;5114529;28;20937;-56
2022/09/27 00:17:54;;;;;;;2.33;2.10;;;11.10;99.90;;;;;;5116849;28;20815;-56
2022/09/27 00:20:22;;;;;;;2.70;1.60;;;11.10;99.90;;;;;;5116965;28;20996;-56
2022/09/27 00:22:49;;;;;;;2.00;1.90;;;11.10;99.90;;;;;;5114895;28;20469;-56
2022/09/27 00:25:17;;;;;;;1.67;1.47;;;11.10;99.90;;;;;;5116573;28;20443;-58
2022/09/27 00:27:45;;;;;;;2.57;2.37;;;11.20;99.90;;;;;;5116882;28;20580;-55
2022/09/27 00:30:13;;;;;;;4.33;1.83;;;11.10;99.90;;;;;;5114424;28;20465;-56
2022/09/27 00:32:40;;;;;;;1.57;1.47;;;11.10;99.90;;;;;;5116445;28;20555;-56
2022/09/27 00:35:09;;;;;;;1.87;1.77;;;11.10;99.90;;;;;;5116986;28;20473;-55
2022/09/27 00:37:36;;;;;;;1.60;1.50;;;11.10;99.90;;;;;;5114399;28;20481;-56
2022/09/27 00:40:04;;;;;;;2.37;1.60;;;11.20;99.90;;;;;;5116601;28;20525;-56
2022/09/27 00:42:31;;;;;;;2.27;1.60;;;11.10;99.90;;;;;;5116698;28;20532;-56
2022/09/27 00:45:11;;;;;;;2.00;1.30;;;11.20;99.90;;;;;;5113336;28;20485;-56
2022/09/27 00:47:49;;;;;;;1.63;1.53;;;11.10;99.90;;;;;;5116102;28;20797;-56
2022/09/27 00:50:28;;;;;;;3.00;1.70;;;11.10;99.90;;;;;;5116230;28;20514;-56
2022/09/27 00:53:04;;;;;;;1.97;1.77;;;11.20;99.90;;;;;;5114200;28;20519;-56
2022/09/27 00:55:36;;;;;;;1.60;1.50;;;11.20;99.90;;;;;;5116419;28;20442;-55
2022/09/27 00:58:07;;;;;;;1.60;1.50;;;11.20;99.90;;;;;;5116294;28;20417;-56
2022/09/27 01:00:34;;;;;;;2.00;1.80;;;11.20;99.90;;;;;;5114235;27;20512;-56
2022/09/27 01:03:06;;;;;;;2.47;1.47;;;11.20;99.90;;;;;;5115833;28;20473;-56
2022/09/27 01:05:34;;;;;;;1.50;1.40;;;11.20;99.90;;;;;;5116327;28;20527;-56
2022/09/27 01:08:02;;;;;;;2.60;1.40;;;11.20;99.90;;;;;;5113920;28;20448;-56
2022/09/27 01:10:37;;;;;;;1.83;1.40;;;11.20;99.90;;;;;;5116252;28;20507;-56
2022/09/27 01:13:12;;;;;;;1.60;1.50;;;11.20;99.90;;;;;;5115677;28;20514;-56
2022/09/27 01:15:48;;;;;;;1.80;1.70;;;11.30;99.90;;;;;;5112375;28;20517;-56
2022/09/27 01:18:26;;;;;;;1.60;1.50;;;11.20;99.90;;;;;;5114824;28;20881;-56
2022/09/27 01:21:34;;;;;;;2.97;1.33;;;11.20;99.90;;;;;;5115826;28;20454;-56
2022/09/27 01:24:21;;;;;;;2.27;1.30;;;11.20;99.90;;;;;;5115837;28;20539;-56
2022/09/27 01:27:27;;;;;;;1.97;1.37;;;11.30;99.90;;;;;;5115433;28;20462;-56
2022/09/27 01:30:26;;;;;;;1.70;1.60;;;11.40;99.90;;;;;;5113577;28;20446;-56
2022/09/27 01:33:09;;;;;;;2.03;1.83;;;11.20;99.90;;;;;;5094886;27;20477;-56
2022/09/27 01:35:48;;;;;;;2.00;1.83;;;11.40;99.90;;;;;;5115389;28;20422;-56
2022/09/27 01:38:24;;;;;;;2.13;1.53;;;11.30;99.90;;;;;;5114816;28;20415;-56
2022/09/27 01:40:58;;;;;;;1.77;1.60;;;11.30;99.90;;;;;;5115222;28;20518;-56
2022/09/27 01:43:32;;;;;;;1.37;1.27;;;11.40;99.90;;;;;;5112888;28;20435;-56
2022/09/27 01:46:05;;;;;;;1.80;1.57;;;11.30;99.90;;;;;;5115199;28;20431;-56
2022/09/27 01:48:42;;;;;;;3.13;1.50;;;11.30;99.90;;;;;;5114936;28;20510;-56
2022/09/27 01:51:14;;;;;;;1.30;1.20;;;11.30;99.90;;;;;;5112785;28;20604;-56
2022/09/27 01:53:45;;;;;;;3.30;1.50;;;11.30;99.90;;;;;;5115593;28;20520;-56
2022/09/27 01:56:18;;;;;;;1.83;1.40;;;11.30;99.90;;;;;;5115425;28;20517;-56
2022/09/27 01:58:52;;;;;;;3.00;1.60;;;11.30;99.90;;;;;;5112999;27;20427;-56
2022/09/27 02:01:22;;;;;;;1.70;1.60;;;11.20;99.90;;;;;;5114717;28;21063;-56
2022/09/27 02:03:53;;;;;;;1.67;1.40;;;11.30;99.90;;;;;;5114626;28;21052;-55
2022/09/27 02:06:23;;;;;;;1.53;1.43;;;11.40;99.90;;;;;;5113087;28;20455;-56
2022/09/27 02:08:53;;;;;;;1.57;1.47;;;11.40;99.90;;;;;;5114622;28;21004;-55
2022/09/27 02:11:21;;;;;;;1.70;1.60;;;11.40;99.90;;;;;;5114252;28;20502;-56
2022/09/27 02:13:54;;;;;;;1.83;1.17;;;11.30;99.90;;;;;;5112893;28;20443;-56
2022/09/27 02:16:33;;;;;;;1.43;1.33;;;11.30;99.90;;;;;;5114399;28;20758;-56
2022/09/27 02:19:11;;;;;;;1.80;1.70;;;11.30;99.90;;;;;;5114492;28;20429;-56
2022/09/27 02:21:42;;;;;;;1.97;1.30;;;11.30;99.90;;;;;;5112390;28;20977;-56
2022/09/27 02:24:17;;;;;;;1.43;1.33;;;11.30;99.90;;;;;;5114623;28;20469;-56
2022/09/27 02:26:46;;;;;;;1.40;1.30;;;11.30;99.90;;;;;;5113594;28;20426;-56
2022/09/27 02:29:18;;;;;;;2.07;1.70;;;11.20;99.90;;;;;;5111936;28;20557;-56
2022/09/27 02:31:45;;;;;;;1.67;1.43;;;11.30;99.90;;;;;;5114367;28;20473;-55
2022/09/27 02:34:18;;;;;;;1.60;1.50;;;11.30;99.90;;;;;;5114506;28;20465;-55
2022/09/27 02:36:45;;;;;;;3.20;1.50;;;11.30;99.90;;;;;;5112283;28;20431;-55
2022/09/27 02:39:12;;;;;;;1.40;1.20;;;11.20;99.90;;;;;;5114105;28;20520;-56
2022/09/27 02:41:40;;;;;;;1.57;1.47;;;11.10;99.90;;;;;;5113875;28;20545;-56
2022/09/27 02:44:10;;;;;;;1.20;1.10;;;11.00;99.90;;;;;;5112202;28;20912;-56
2022/09/27 02:46:59;;;;;;;1.93;1.83;;;10.90;99.90;;;;;;5113752;28;20893;-55
2022/09/27 02:49:43;;;;;;;1.40;1.30;;;10.90;99.90;;;;;;5113733;28;20972;-56
2022/09/27 02:52:20;;;;;;;2.53;1.20;;;10.90;99.90;;;;;;5111707;28;20466;-56
2022/09/27 02:55:02;;;;;;;1.63;1.53;;;10.80;99.90;;;;;;5113740;28;20912;-56
2022/09/27 02:57:38;;;;;;;1.97;1.30;;;10.80;99.90;;;;;;5112023;28;20882;-56
2022/09/27 03:00:09;;;;;;;1.60;1.50;;;10.80;99.90;;;;;;5113339;28;20544;-56
2022/09/27 03:02:49;;;;;;;1.70;1.27;;;10.80;99.90;;;;;;5113608;28;20458;-56
2022/09/27 03:05:20;;;;;;;1.63;1.43;;;10.70;99.90;;;;;;5111528;28;20839;-56
2022/09/27 03:07:48;;;;;;;1.50;1.40;;;10.60;99.90;;;;;;5113304;28;20917;-56
2022/09/27 03:10:22;;;;;;;1.40;1.30;;;10.50;99.90;;;;;;5113731;28;20549;-56
2022/09/27 03:12:49;;;;;;;1.93;1.60;;;10.40;99.90;;;;;;5111239;28;20471;-56
2022/09/27 03:15:17;;;;;;;3.00;1.50;;;10.40;99.90;;;;;;5113372;28;20442;-56
2022/09/27 03:17:44;;;;;;;3.17;1.90;;;10.30;99.90;;;;;;5113388;28;20557;-55
2022/09/27 03:20:12;;;;;;;3.10;1.90;;;10.40;99.90;;;;;;5111370;28;20808;-56
2022/09/27 03:22:41;;;;;;;1.57;1.40;;;10.40;99.90;;;;;;5113369;28;20493;-55
2022/09/27 03:25:09;;;;;;;2.17;1.60;;;10.40;99.90;;;;;;5113511;28;20569;-56
2022/09/27 03:27:36;;;;;;;3.43;1.63;;;10.30;99.90;;;;;;5111207;28;20998;-56
2022/09/27 03:30:05;;;;;;;2.50;1.63;;;10.40;99.90;;;;;;5113343;28;20541;-56
2022/09/27 03:32:32;;;;;;;1.63;1.50;;;10.40;99.90;;;;;;5113406;28;20527;-56
2022/09/27 03:34:59;;;;;;;2.87;1.90;;;10.40;99.90;;;;;;5111210;28;20511;-56
2022/09/27 03:37:28;;;;;;;1.40;1.30;;;10.40;99.90;;;;;;5113207;28;20449;-56
2022/09/27 03:39:57;;;;;;;2.67;1.70;;;10.30;99.90;;;;;;5112616;28;20537;-56
2022/09/27 03:42:24;;;;;;;3.27;1.90;;;10.30;99.90;;;;;;5110792;28;20498;-56
2022/09/27 03:44:51;;;;;;;2.90;1.80;;;10.30;99.90;;;;;;5112994;28;20474;-56
2022/09/27 03:47:18;;;;;;;1.63;1.53;;;10.30;99.90;;;;;;5112281;28;20929;-56
2022/09/27 03:49:46;;;;;;;4.17;2.13;;;10.20;99.90;;;;;;5110762;28;20470;-56
2022/09/27 03:52:13;;;;;;;1.90;1.40;;;10.30;99.90;;;;;;5113147;28;20818;-56
2022/09/27 03:54:41;;;;;;;2.07;1.80;;;10.20;99.90;;;;;;5112652;28;20442;-56
2022/09/27 03:57:10;;;;;;;1.60;1.50;;;10.30;99.90;;;;;;5111036;28;20458;-56
2022/09/27 03:59:37;;;;;;;2.10;1.70;;;10.30;99.90;;;;;;5112538;28;20450;-54
2022/09/27 04:02:05;;;;;;;1.83;1.70;;;10.30;99.90;;;;;;5113189;28;20899;-55
2022/09/27 04:04:32;;;;;;;2.03;1.50;;;10.30;99.90;;;;;;5110986;28;20557;-55
2022/09/27 04:06:59;;;;;;;3.07;1.93;;;10.30;99.90;;;;;;5112527;28;20453;-55
2022/09/27 04:09:27;;;;;;;4.80;2.23;;;10.40;99.90;;;;;;5113014;28;20447;-54
2022/09/27 04:11:54;;;;;;;6.57;2.00;;;10.40;99.90;;;;;;5110944;28;20477;-55
2022/09/27 04:14:22;;;;;;;5.17;2.03;;;10.30;99.90;;;;;;5112489;28;20540;-55
2022/09/27 04:16:50;;;;;;;2.67;2.10;;;10.30;99.90;;;;;;5112367;28;21012;-55
2022/09/27 04:19:17;;;;;;;3.20;2.10;;;10.40;99.90;;;;;;5110627;28;20482;-54
2022/09/27 04:21:44;;;;;;;2.20;1.93;;;10.40;99.90;;;;;;5112164;28;20557;-54
2022/09/27 04:24:11;;;;;;;3.87;1.93;;;10.50;99.90;;;;;;5112925;28;20505;-54
2022/09/27 04:26:39;;;;;;;3.73;2.70;;;10.50;99.90;;;;;;5110718;28;20442;-54
2022/09/27 04:29:08;;;;;;;5.33;2.10;;;10.50;99.90;;;;;;5112133;28;20487;-54
2022/09/27 04:31:37;;;;;;;3.60;2.47;;;10.50;99.90;;;;;;5112387;28;20486;-55
2022/09/27 04:34:05;;;;;;;4.10;2.00;;;10.50;99.90;;;;;;5110745;28;20447;-54
2022/09/27 04:36:32;;;;;;;3.40;2.87;;;10.60;99.90;;;;;;5112765;28;20920;-55
2022/09/27 04:39:01;;;;;;;2.53;2.33;;;10.70;99.90;;;;;;5112768;28;20495;-54
2022/09/27 04:41:29;;;;;;;2.20;2.00;;;10.70;99.90;;;;;;5110550;28;20566;-54
2022/09/27 04:44:00;;;;;;;2.60;2.10;;;10.70;99.90;;;;;;5112463;28;20495;-55
2022/09/27 04:46:30;;;;;;;3.07;2.70;;;10.80;99.90;;;;;;5112341;28;20558;-54
2022/09/27 04:48:59;;;;;;;6.00;2.63;;;10.80;99.90;;;;;;5110042;28;20482;-54
2022/09/27 04:51:27;;;;;;;4.33;2.47;;;10.70;99.90;;;;;;5114300;28;20450;-54
2022/09/27 04:53:56;;;;;;;7.63;2.50;;;10.70;99.90;;;;;;5116377;28;20457;-54
2022/09/27 04:56:23;;;;;;;2.90;2.53;;;10.70;99.90;;;;;;5114023;28;20446;-54
2022/09/27 04:58:50;;;;;;;4.20;2.40;;;10.70;99.90;;;;;;5116037;28;20442;-55
2022/09/27 05:01:17;;;;;;;5.03;2.80;;;10.70;99.90;;;;;;5115687;28;20510;-54
2022/09/27 05:03:45;;;;;;;2.83;2.30;;;10.60;99.90;;;;;;5113920;28;20442;-54
2022/09/27 05:06:13;;;;;;;5.77;2.90;;;10.70;99.90;;;;;;5115969;28;20489;-55
2022/09/27 05:08:40;;;;;;;2.80;2.57;;;10.50;99.90;;;;;;5115924;28;20533;-54
2022/09/27 05:11:08;;;;;;;3.73;2.13;;;10.60;99.90;;;;;;5113493;28;20552;-54
2022/09/27 05:13:35;;;;;;;3.77;2.23;;;10.50;99.90;;;;;;5115687;28;20509;-54
2022/09/27 05:16:03;;;;;;;3.00;2.30;;;10.50;99.90;;;;;;5115398;28;20465;-55
2022/09/27 05:18:31;;;;;;;3.90;2.90;;;10.50;99.90;;;;;;5113727;27;20454;-55
2022/09/27 05:20:58;;;;;;;3.43;2.83;;;10.50;99.90;;;;;;5115362;28;20451;-55
2022/09/27 05:23:27;;;;;;;2.43;2.23;;;10.50;99.90;;;;;;5115210;28;20434;-55
2022/09/27 05:25:55;;;;;;;3.40;2.40;;;10.50;99.90;;;;;;5113122;28;20520;-54
2022/09/27 05:28:22;;;;;;;7.03;2.10;;;10.40;99.90;;;;;;5115680;28;20741;-54
2022/09/27 05:30:50;;;;;;;6.50;2.60;;;10.50;99.90;;;;;;5115438;28;20454;-54
2022/09/27 05:33:17;;;;;;;6.10;2.13;;;10.50;99.90;;;;;;5113085;28;20498;-55
2022/09/27 05:35:52;;;;;;;3.37;2.23;;;10.50;99.90;;;;;;5115356;28;20525;-55
2022/09/27 05:38:19;;;;;;;2.60;2.00;;;10.50;99.90;;;;;;5114948;28;20423;-55
2022/09/27 05:40:49;;;;;;;2.80;2.17;;;10.50;99.90;;;;;;5113036;28;20921;-56
2022/09/27 05:43:17;;;;;;;3.20;3.00;;;10.50;99.90;;;;;;5114308;28;20497;-56
2022/09/27 05:45:44;;;;;;;3.30;2.90;;;10.60;99.90;;;;;;5114162;28;20967;-56
2022/09/27 05:48:13;;;;;;;3.43;2.50;;;10.60;99.90;;;;;;5112067;28;20447;-56
2022/09/27 05:50:41;;;;;;;2.63;2.13;;;10.60;99.90;;;;;;5114781;28;20431;-55
2022/09/27 05:53:09;;;;;;;3.20;2.30;;;10.60;99.90;;;;;;5115079;28;20550;-55
2022/09/27 05:55:36;;;;;;;6.03;2.90;;;10.50;99.90;;;;;;5112637;28;20788;-56
2022/09/27 05:58:06;;;;;;;4.97;2.57;;;10.50;99.90;;;;;;5114829;28;20518;-56
2022/09/27 06:00:34;;;;;;;2.70;2.40;;;10.40;99.90;;;;;;5114523;28;20553;-56
2022/09/27 06:03:04;;;;;;;3.03;2.73;;;10.50;99.90;;;;;;5112102;28;20649;-56
2022/09/27 06:05:35;;;;;;;3.20;2.60;;;10.50;99.90;;;;;;5114056;28;20521;-56
2022/09/27 06:08:04;;;;;;;3.43;2.43;;;10.60;99.90;;;;;;5114512;28;20459;-56
2022/09/27 06:10:32;;;;;;;3.00;2.10;;;10.50;99.90;;;;;;5111870;28;20917;-56
2022/09/27 06:13:01;;;;;;;7.67;2.57;;;10.50;99.90;;;;;;5114168;28;20466;-56
2022/09/27 06:15:30;;;;;;;3.10;2.10;;;10.50;99.90;;;;;;5114431;28;20446;-55
2022/09/27 06:17:57;;;;;;;2.63;2.43;;;10.60;99.90;;;;;;5112008;28;20450;-55
2022/09/27 06:20:25;;;;;;;3.17;2.87;;;10.70;99.90;;;;;;5114223;28;20451;-56
2022/09/27 06:22:52;;;;;;;1.83;1.73;;;10.60;99.90;;;;;;5114005;28;20477;-56
2022/09/27 06:25:20;;;;;;;2.43;2.17;;;10.70;99.90;;;;;;5111802;28;20482;-55
2022/09/27 06:27:47;;;;;;;4.50;2.30;;;10.70;99.90;;;;;;5114152;28;20450;-55
2022/09/27 06:30:14;;;;;;;2.10;1.70;;;10.80;99.90;;;;;;5114296;28;20474;-55
2022/09/27 06:32:43;;;;;;;3.40;2.13;;;10.80;99.90;;;;;;5111332;28;20879;-55
2022/09/27 06:35:10;;;;;;;2.63;1.87;;;10.80;99.90;;;;;;5114104;28;20442;-56
2022/09/27 06:37:38;;;;;;;3.57;2.07;;;10.80;99.90;;;;;;5113724;28;20442;-56
2022/09/27 06:40:07;;;;;;;2.33;1.80;;;10.90;99.90;;;;;;5111291;28;20476;-56
2022/09/27 06:42:35;;;;;;;2.10;1.80;;;10.90;99.90;;;;;;5113556;28;21035;-55
2022/09/27 06:45:02;;;;;;;2.30;1.83;;;10.90;99.90;;;;;;5113522;28;20527;-56
2022/09/27 06:47:29;;;;;;;3.40;1.83;;;10.90;99.90;;;;;;5110777;28;20525;-56
2022/09/27 06:49:58;;;;;;;1.83;1.67;;;11.00;99.90;;;;;;5113350;28;20481;-56
2022/09/27 06:52:26;;;;;;;3.67;1.67;;;10.90;99.90;;;;;;5113302;28;20990;-57
2022/09/27 06:54:53;;;;;;;1.70;1.60;;;10.70;99.90;;;;;;5111170;28;20534;-56
2022/09/27 07:02:47;;;;;;;1.40;1.30;;;10.90;99.90;;;;;;5111193;28;20484;-56
2022/09/27 07:05:15;;;;;;;3.47;1.73;;;10.90;99.90;;;;;;5113771;28;20506;-56
2022/09/27 07:07:43;;;;;;;1.33;1.23;;;11.00;99.90;;;;;;5113207;28;20565;-55
2022/09/27 07:10:11;;;;;;;1.40;1.30;;;10.80;99.90;;;;;;5111183;28;20458;-56
2022/09/27 07:12:38;;;;;;;1.70;1.23;;;10.80;99.90;;;;;;5113546;28;20462;-56
2022/09/27 07:15:06;;;;;;;1.70;1.30;;;10.80;99.90;;;;;;5112496;27;20451;-55
2022/09/27 07:17:35;;;;;;;1.63;1.37;;;10.90;99.90;;;;;;5110847;28;20481;-55
2022/09/27 07:20:02;;;;;;;1.60;1.30;;;10.80;99.90;;;;;;5113132;28;20537;-55
2022/09/27 07:22:31;;;;;;;1.93;1.50;;;10.80;99.90;;;;;;5112339;28;20477;-55
2022/09/27 07:24:58;;;;;;;1.27;1.17;;;10.90;99.90;;;;;;5110965;28;20492;-55
2022/09/27 07:27:26;;;;;;;2.97;2.77;;;10.90;99.90;;;;;;5112987;28;20482;-56
2022/09/27 07:29:53;;;;;;;1.40;1.30;;;11.00;99.90;;;;;;5112772;28;20459;-55
2022/09/27 07:32:21;;;;;;;1.50;1.40;;;11.10;99.90;;;;;;5110989;28;20873;-56
2022/09/27 07:34:48;;;;;;;1.50;1.40;;;11.20;99.90;;;;;;5112949;28;20446;-56
2022/09/27 07:37:16;;;;;;;3.23;1.60;;;11.40;99.90;;;;;;5112417;28;20537;-55
2022/09/27 07:39:45;;;;;;;1.67;1.23;;;11.30;99.90;;;;;;5111058;28;20447;-55
2022/09/27 07:42:12;;;;;;;1.50;1.40;;;11.20;99.90;;;;;;5112592;28;20950;-56
2022/09/27 07:44:39;;;;;;;1.50;1.40;;;11.10;99.90;;;;;;5112533;28;20550;-55
2022/09/27 07:47:08;;;;;;;1.80;1.57;;;11.10;99.90;;;;;;5109823;28;20515;-56
2022/09/27 07:49:35;;;;;;;1.57;1.47;;;11.00;99.90;;;;;;5111617;28;20904;-56
2022/09/27 07:52:02;;;;;;;2.83;1.60;;;11.00;99.90;;;;;;5112067;28;20557;-56
2022/09/27 07:54:30;;;;;;;2.67;1.47;;;11.10;99.90;;;;;;5110469;28;20482;-55
2022/09/27 07:56:59;;;;;;;1.53;1.43;;;11.10;99.90;;;;;;5112154;28;20804;-58
2022/09/27 07:59:26;;;;;;;1.87;1.70;;;11.00;99.90;;;;;;5112392;28;20443;-56
2022/09/27 08:01:54;;;;;;;1.97;1.70;;;11.10;99.90;;;;;;5110340;28;20809;-56
2022/09/27 08:04:22;;;;;;;1.60;1.50;;;11.20;99.90;;;;;;5112746;28;20849;-56
2022/09/27 08:06:49;;;;;;;1.70;1.60;;;11.30;99.90;;;;;;5112940;28;20559;-55
2022/09/27 08:09:16;;;;;;;1.57;1.47;;;11.50;99.90;;;;;;5110256;28;21009;-55
2022/09/27 08:11:44;;;;;;;2.10;1.70;;;11.50;99.90;;;;;;5112486;28;20472;-55
2022/09/27 08:14:13;;;;;;;2.30;1.30;;;11.40;99.90;;;;;;5112564;28;20511;-55
2022/09/27 08:16:41;;;;;;;2.10;1.77;;;11.40;99.90;;;;;;5110742;28;20442;-55
2022/09/27 08:19:08;;;;;;;1.60;1.50;;;11.40;99.90;;;;;;5112125;28;20456;-55
2022/09/27 08:21:35;;;;;;;1.70;1.60;;;11.40;99.90;;;;;;5112816;28;20470;-56
2022/09/27 08:24:03;;;;;;;1.70;1.57;;;11.30;99.90;;;;;;5110053;28;20925;-55
2022/09/27 08:26:30;;;;;;;1.93;1.60;;;11.30;99.90;;;;;;5115671;28;20679;-55
2022/09/27 08:28:57;;;;;;;2.27;1.40;;;11.20;99.90;;;;;;5116149;28;20506;-55
2022/09/27 08:31:26;;;;;;;1.97;1.40;;;11.20;99.90;;;;;;5114088;28;20464;-55
2022/09/27 08:33:53;;;;;;;1.60;1.50;;;11.30;99.90;;;;;;5116048;27;20442;-56
2022/09/27 08:36:21;;;;;;;1.40;1.30;;;11.30;99.90;;;;;;5116670;28;20470;-55
2022/09/27 08:38:49;;;;;;;1.43;1.33;;;11.50;99.90;;;;;;5114259;28;20474;-55
2022/09/27 08:41:27;;;;;;;1.47;1.37;;;11.70;99.90;;;;;;5115981;28;20463;-55
2022/09/27 08:44:06;;;;;;;2.40;1.70;;;11.80;99.90;;;;;;5115879;28;20426;-55
2022/09/27 08:46:46;;;;;;;2.13;1.93;;;11.60;99.90;;;;;;5113914;28;20462;-55
2022/09/27 08:49:19;;;;;;;1.70;1.37;;;11.70;99.90;;;;;;5115716;28;20506;-55
2022/09/27 08:51:51;;;;;;;1.83;1.50;;;11.60;99.90;;;;;;5115975;28;20458;-56
2022/09/27 08:54:23;;;;;;;2.03;1.30;;;11.70;99.90;;;;;;5114030;28;20468;-56
2022/09/27 08:56:52;;;;;;;2.87;1.70;;;11.80;99.90;;;;;;5115893;28;20709;-55
2022/09/27 08:59:23;;;;;;;1.50;1.40;;;11.80;99.90;;;;;;5115494;28;20487;-55
2022/09/27 09:01:53;;;;;;;5.63;1.70;;;11.90;99.90;;;;;;5113963;28;20516;-55
2022/09/27 09:04:28;;;;;;;1.87;1.73;;;12.00;99.90;;;;;;5115736;28;20743;-55
2022/09/27 09:07:06;;;;;;;2.80;1.70;;;11.80;99.90;;;;;;5115227;28;20470;-55
2022/09/27 09:09:44;;;;;;;1.53;1.43;;;11.70;99.90;;;;;;5113662;28;20437;-55
2022/09/27 09:15:30;;;;;;;1.60;1.47;;;11.40;99.90;;;;;;5113419;28;20401;-55
2022/09/27 09:18:20;;;;;;;1.70;1.60;;;11.60;99.90;;;;;;5115838;28;20427;-55
2022/09/27 09:20:58;;;;;;;1.90;1.73;;;11.60;99.90;;;;;;5115069;28;20435;-55
2022/09/27 09:24:05;;;;;;;1.40;1.30;;;11.70;99.90;;;;;;5113611;28;20836;-55
2022/09/27 09:26:38;;;;;;;2.53;1.50;;;11.80;99.90;;;;;;5105744;28;20521;-55
2022/09/27 09:29:30;;;;;;;1.47;1.37;;;12.00;99.90;;;;;;5114562;28;20450;-55
2022/09/27 09:32:07;;;;;;;2.03;1.70;;;12.20;99.90;;;;;;5114796;28;20562;-56
2022/09/27 09:34:40;;;;;;;2.30;1.43;;;12.30;99.90;;;;;;5115029;28;20465;-55
2022/09/27 09:37:16;;;;;;;2.13;1.50;;;12.30;99.90;;;;;;5112582;28;20517;-56
2022/09/27 09:39:49;;;;;;;3.77;1.60;;;12.20;99.90;;;;;;5115443;28;20449;-56
2022/09/27 09:42:22;;;;;;;2.70;1.73;;;12.40;99.90;;;;;;5114698;28;21068;-55
2022/09/27 09:44:54;;;;;;;3.13;1.60;;;13.00;99.90;;;;;;5112951;28;20560;-56
2022/09/27 09:47:29;;;;;;;2.37;1.43;;;13.60;99.90;;;;;;5115316;28;20498;-56
2022/09/27 09:50:03;;;;;;;2.00;1.90;;;14.90;99.90;;;;;;5113832;28;20558;-56
2022/09/27 09:52:40;;;;;;;2.33;1.70;;;15.70;99.90;;;;;;5112501;28;20457;-56
2022/09/27 09:55:17;;;;;;;2.10;1.90;;;16.20;99.90;;;;;;5115350;28;20429;-56
2022/09/27 09:57:52;;;;;;;1.90;1.70;;;16.30;99.90;;;;;;5114311;28;20415;-55
2022/09/27 10:00:20;;;;;;;2.03;1.80;;;15.70;99.90;;;;;;5112603;28;20561;-56
2022/09/27 10:02:55;;;;;;;1.50;1.40;;;15.50;99.90;;;;;;5114643;28;20466;-55
2022/09/27 10:05:25;;;;;;;1.97;1.73;;;14.60;99.90;;;;;;5114414;28;20525;-55
2022/09/27 10:07:56;;;;;;;2.10;1.80;;;14.40;99.90;;;;;;5111973;28;20467;-56
2022/09/27 10:10:24;;;;;;;2.23;1.97;;;14.80;99.90;;;;;;5113005;28;20427;-56
2022/09/27 10:12:51;;;;;;;5.23;1.53;;;15.10;99.90;;;;;;5113309;28;20574;-56
2022/09/27 10:15:20;;;;;;;5.40;1.90;;;16.10;99.90;;;;;;5111616;28;20447;-56
2022/09/27 10:17:50;;;;;;;1.80;1.70;;;17.10;99.90;;;;;;5113663;28;20434;-56
2022/09/27 10:20:28;;;;;;;1.33;1.23;;;16.80;99.90;;;;;;5113342;28;20538;-56
2022/09/27 10:23:01;;;;;;;3.23;1.57;;;15.80;99.90;;;;;;5111320;28;20467;-55
2022/09/27 10:25:47;;;;;;;5.37;1.70;;;15.30;99.90;;;;;;5113123;28;20439;-55
2022/09/27 10:28:31;;;;;;;1.50;1.40;;;15.10;99.90;;;;;;5113150;28;20467;-55
2022/09/27 10:31:01;;;;;;;1.93;1.73;;;14.70;99.90;;;;;;5111575;28;20459;-55
2022/09/27 10:33:30;;;;;;;2.47;1.87;;;14.30;99.90;;;;;;5113348;28;20463;-55
2022/09/27 10:36:00;;;;;;;4.30;1.90;;;13.80;99.90;;;;;;5113414;28;20457;-56
2022/09/27 10:38:30;;;;;;;3.00;1.80;;;13.60;99.90;;;;;;5112433;28;20419;-56
2022/09/27 10:41:15;;;;;;;3.03;1.63;;;13.20;99.90;;;;;;5113132;28;20495;-56
2022/09/27 10:43:42;;;;;;;3.77;2.00;;;13.30;99.90;;;;;;5111133;28;20453;-56
2022/09/27 10:46:26;;;;;;;1.80;1.70;;;13.50;99.90;;;;;;5112208;28;20865;-55
2022/09/27 10:49:11;;;;;;;3.63;1.80;;;13.60;99.90;;;;;;5110773;28;20545;-55
2022/09/27 10:51:40;;;;;;;4.07;1.90;;;14.50;99.90;;;;;;5111025;28;20980;-55
2022/09/27 10:54:20;;;;;;;4.83;2.90;;;15.10;99.90;;;;;;5112734;28;20972;-55
2022/09/27 10:56:56;;;;;;;3.80;1.83;;;14.60;99.90;;;;;;5112808;28;20478;-55
2022/09/27 10:59:24;;;;;;;2.20;2.00;;;14.60;99.90;;;;;;5110205;28;20431;-55
2022/09/27 11:01:52;;;;;;;3.80;1.90;;;15.10;99.90;;;;;;5113101;28;20495;-55
2022/09/27 11:04:24;;;;;;;4.10;1.90;;;15.00;99.90;;;;;;5112727;28;20522;-55
2022/09/27 11:06:53;;;;;;;2.53;1.80;;;14.60;99.90;;;;;;5110487;28;20467;-56
2022/09/27 11:09:25;;;;;;;2.33;2.07;;;14.00;99.90;;;;;;5112551;28;20491;-56
2022/09/27 11:12:08;;;;;;;2.67;2.23;;;14.10;99.90;;;;;;5112747;28;20470;-55
2022/09/27 11:14:35;;;;;;;2.30;1.63;;;14.20;99.90;;;;;;5110811;28;20475;-55
2022/09/27 11:17:19;;;;;;;4.20;1.53;;;14.40;99.90;;;;;;5112751;28;20535;-55
2022/09/27 11:19:57;;;;;;;2.33;2.13;;;14.20;99.90;;;;;;5112557;28;20439;-56
2022/09/27 11:22:49;;;;;;;1.97;1.63;;;14.20;99.90;;;;;;5110405;28;20505;-55
2022/09/27 11:25:27;;;;;;;4.50;1.87;;;14.20;99.90;;;;;;5111946;28;20863;-56
2022/09/27 11:28:04;;;;;;;2.93;1.87;;;14.10;99.90;;;;;;5110044;28;20511;-62
2022/09/27 11:30:37;;;;;;;2.50;1.70;;;14.30;99.90;;;;;;5112086;28;20461;-56
2022/09/27 11:33:25;;;;;;;2.27;1.80;;;14.20;99.90;;;;;;5111956;28;20466;-56
2022/09/27 11:35:59;;;;;;;2.30;2.10;;;13.80;99.90;;;;;;5110471;28;20906;-56
2022/09/27 11:38:32;;;;;;;2.40;1.83;;;13.80;99.90;;;;;;5113078;28;20439;-60
2022/09/27 11:41:18;;;;;;;3.83;1.77;;;13.60;99.90;;;;;;5112424;28;20460;-56
2022/09/27 11:44:18;;;;;;;3.47;2.00;;;13.60;99.90;;;;;;5109681;28;20838;-57
2022/09/27 11:46:59;;;;;;;4.00;1.30;;;13.70;99.90;;;;;;5112907;28;20478;-57
2022/09/27 11:49:49;;;;;;;2.80;1.40;;;13.90;99.90;;;;;;5112323;28;20561;-55
2022/09/27 11:52:29;;;;;;;1.67;1.50;;;14.00;99.90;;;;;;5110864;28;20468;-55
2022/09/27 11:55:15;;;;;;;2.30;1.40;;;13.60;99.90;;;;;;5112463;28;20518;-55
2022/09/27 11:57:47;;;;;;;2.27;1.33;;;13.50;99.90;;;;;;5110306;28;20837;-55
2022/09/27 12:00:20;;;;;;;1.60;1.50;;;13.50;99.90;;;;;;5115695;28;20552;-57
2022/09/27 12:03:28;;;;;;;1.70;1.60;;;13.50;99.90;;;;;;5119087;28;20473;-56
2022/09/27 12:06:07;;;;;;;1.80;1.50;;;13.60;99.90;;;;;;5117060;27;20458;-56
2022/09/27 12:08:46;;;;;;;1.90;1.60;;;13.40;99.90;;;;;;5119490;27;20830;-55
2022/09/27 12:11:21;;;;;;;1.37;1.27;;;12.80;99.90;;;;;;5119345;28;20624;-56
2022/09/27 12:13:52;;;;;;;3.00;1.20;;;12.30;99.90;;;;;;5117014;27;20433;-56
2022/09/27 12:16:21;;;;;;;1.37;1.10;;;12.00;99.90;;;;;;5119634;27;20423;-55
2022/09/27 12:18:51;;;;;;;1.70;1.10;;;11.90;99.90;;;;;;5119265;27;20442;-55
2022/09/27 12:21:18;;;;;;;1.43;1.10;;;11.50;99.90;;;;;;5116979;27;20466;-56
2022/09/27 12:23:49;;;;;;;1.20;1.10;;;11.20;99.90;;;;;;5119000;28;20448;-55
2022/09/27 12:26:23;;;;;;;1.67;1.30;;;11.00;99.90;;;;;;5118921;28;20450;-55
2022/09/27 12:28:54;;;;;;;1.20;1.10;;;10.60;99.90;;;;;;5116709;27;20471;-56
2022/09/27 12:31:28;;;;;;;1.20;1.10;;;10.70;99.90;;;;;;5118419;28;20546;-56
2022/09/27 12:34:08;;;;;;;3.33;1.37;;;10.80;99.90;;;;;;5119438;28;20442;-56
2022/09/27 12:36:42;;;;;;;2.53;1.40;;;11.00;99.90;;;;;;5116890;28;20437;-56
2022/09/27 12:39:16;;;;;;;2.07;1.53;;;11.10;99.90;;;;;;5118816;28;20426;-56
2022/09/27 12:41:51;;;;;;;2.00;1.87;;;11.10;99.90;;;;;;5119068;28;20466;-56
2022/09/27 12:44:18;;;;;;;1.90;1.73;;;11.30;99.90;;;;;;5117380;28;20487;-57
2022/09/27 12:46:59;;;;;;;1.40;1.30;;;11.40;99.90;;;;;;5119289;28;20429;-56
2022/09/27 12:49:32;;;;;;;1.77;1.37;;;11.50;99.90;;;;;;5116554;28;20863;-56
2022/09/27 12:52:03;;;;;;;1.30;1.17;;;11.80;99.90;;;;;;5118401;28;20499;-56
2022/09/27 12:54:59;;;;;;;1.40;1.23;;;11.90;99.90;;;;;;5117640;28;20445;-56
2022/09/27 12:57:39;;;;;;;3.03;2.20;;;12.00;99.90;;;;;;5116851;28;20430;-56
2022/09/27 13:00:13;;;;;;;2.13;1.50;;;11.90;99.90;;;;;;5118739;28;20462;-56
2022/09/27 13:03:12;;;;;;;2.60;1.07;;;11.70;99.90;;;;;;5119198;28;20545;-55
2022/09/27 13:06:05;;;;;;;1.70;1.30;;;12.10;99.90;;;;;;5116812;28;20438;-54
2022/09/27 13:08:48;;;;;;;1.37;1.27;;;12.60;99.90;;;;;;5108224;27;20488;-54
2022/09/27 13:11:25;;;;;;;2.30;1.40;;;12.90;99.90;;;;;;5116884;28;20464;-54
2022/09/27 13:13:58;;;;;;;3.20;1.30;;;12.60;99.90;;;;;;5114382;28;20423;-57
2022/09/27 13:16:25;;;;;;;3.10;1.43;;;12.40;99.90;;;;;;5115492;28;20453;-55
2022/09/27 13:19:00;;;;;;;1.80;1.50;;;12.40;99.90;;;;;;5114292;28;20537;-56
2022/09/27 13:21:58;;;;;;;1.43;1.33;;;12.50;99.90;;;;;;5115221;28;20461;-56